Time;durP1;ratioP1;P1;durP2;ratioP2;P2;SDS_P1;SDS_P2;PMS_P1;PMS_P2;Temp;Humidity;BMP_temperature;BMP_pressure;BME280_temperature;BME280_humidity;BME280_pressure;Samples;Min_cycle;Max_cycle;Signal;HPM_P1;HPM_P2
2021/01/09 00:01:19;;;;;;;6.75;4.05;;;;;;;2.94;50.71;101639.47;4990314;28;20073;-73
2021/01/09 00:03:46;;;;;;;7.32;4.22;;;;;;;2.93;50.87;101645.81;4985929;28;20042;-74
2021/01/09 00:06:14;;;;;;;7.55;4.30;;;;;;;2.93;50.78;101648.50;4990705;28;20129;-73
2021/01/09 00:08:41;;;;;;;6.07;4.18;;;;;;;2.92;50.64;101646.75;4988164;28;20355;-74
2021/01/09 00:11:08;;;;;;;7.38;4.50;;;;;;;2.92;50.74;101646.75;4990902;28;20513;-74
2021/01/09 00:13:35;;;;;;;9.20;4.88;;;;;;;2.90;50.82;101652.22;4989619;28;20100;-73
2021/01/09 00:16:07;;;;;;;7.22;4.13;;;;;;;2.91;50.41;101651.28;4991714;28;20046;-73
2021/01/09 00:18:34;;;;;;;6.85;3.92;;;;;;;2.89;50.90;101646.88;4990456;28;20041;-74
2021/01/09 00:21:01;;;;;;;7.82;4.18;;;;;;;2.87;50.74;101648.78;4990458;28;20434;-74
2021/01/09 00:23:29;;;;;;;6.47;3.78;;;;;;;2.88;50.72;101650.50;4989283;28;20045;-74
2021/01/09 00:25:56;;;;;;;7.47;4.15;;;;;;;2.88;50.69;101658.63;4991536;28;20385;-73
2021/01/09 00:28:24;;;;;;;7.18;4.30;;;;;;;2.87;50.68;101654.19;4988580;28;20052;-73
2021/01/09 00:30:51;;;;;;;6.30;4.47;;;;;;;2.86;50.85;101655.13;4990667;28;20049;-73
2021/01/09 00:33:19;;;;;;;8.15;3.85;;;;;;;2.87;50.88;101648.78;4988648;28;20053;-73
2021/01/09 00:35:47;;;;;;;6.20;3.78;;;;;;;2.86;50.69;101657.81;4988354;28;20494;-73
2021/01/09 00:38:14;;;;;;;7.18;4.07;;;;;;;2.85;50.64;101656.94;4985612;28;20048;-73
2021/01/09 00:40:41;;;;;;;7.15;4.22;;;;;;;2.84;50.79;101660.59;4989300;28;20073;-73
2021/01/09 00:43:09;;;;;;;6.20;3.92;;;;;;;2.85;50.90;101654.25;4992283;28;20048;-73
2021/01/09 00:45:36;;;;;;;5.57;3.70;;;;;;;2.85;50.93;101651.53;4990199;28;20509;-74
2021/01/09 00:48:04;;;;;;;7.95;4.45;;;;;;;2.85;51.08;101659.66;4991058;28;20042;-73
2021/01/09 00:50:32;;;;;;;7.20;3.92;;;;;;;2.87;50.78;101662.28;4986444;28;20481;-74
2021/01/09 00:53:00;;;;;;;6.50;3.90;;;;;;;2.85;50.91;101656.94;4991314;28;20432;-73
2021/01/09 00:55:27;;;;;;;6.35;4.03;;;;;;;2.85;51.04;101662.34;4987952;28;20045;-73
2021/01/09 00:57:55;;;;;;;6.38;3.92;;;;;;;2.87;50.85;101662.28;4990342;28;20073;-72
2021/01/09 01:00:22;;;;;;;6.30;3.75;;;;;;;2.89;50.88;101665.78;4987527;28;20039;-73
2021/01/09 01:02:50;;;;;;;7.20;3.90;;;;;;;2.86;50.97;101658.72;4990943;28;20505;-73
2021/01/09 01:05:17;;;;;;;6.55;3.80;;;;;;;2.88;50.97;101669.41;4988450;28;20108;-73
2021/01/09 01:07:45;;;;;;;9.00;4.28;;;;;;;2.90;51.01;101668.44;4988946;28;20046;-73
2021/01/09 01:10:13;;;;;;;7.65;4.13;;;;;;;2.90;51.29;101670.25;4989788;28;20093;-73
2021/01/09 01:12:41;;;;;;;6.72;3.95;;;;;;;2.90;51.06;101671.13;4991772;28;20042;-74
2021/01/09 01:15:09;;;;;;;7.60;4.35;;;;;;;2.92;50.89;101676.47;4990494;28;20389;-73
2021/01/09 01:17:40;;;;;;;7.05;3.97;;;;;;;2.91;51.17;101675.59;4988893;28;20182;-73
2021/01/09 01:20:08;;;;;;;6.35;3.70;;;;;;;2.93;51.22;101676.41;4987150;28;20401;-73
2021/01/09 01:22:36;;;;;;;7.45;3.80;;;;;;;2.93;51.08;101679.13;5009898;28;20065;-73
2021/01/09 01:25:05;;;;;;;7.15;4.07;;;;;;;2.96;51.27;101686.19;4998412;28;20402;-74
2021/01/09 01:27:32;;;;;;;6.63;3.95;;;;;;;2.94;51.21;101683.59;4992242;28;20068;-74
2021/01/09 01:30:00;;;;;;;6.72;3.88;;;;;;;2.96;51.13;101683.50;4994307;28;20038;-73
2021/01/09 01:32:27;;;;;;;7.25;3.70;;;;;;;2.96;51.13;101683.50;4995136;28;20497;-74
2021/01/09 01:34:56;;;;;;;7.50;4.13;;;;;;;2.98;51.02;101700.53;4999266;28;20129;-74
2021/01/09 01:37:23;;;;;;;7.05;4.20;;;;;;;2.99;51.07;101698.72;4990065;28;20050;-72
2021/01/09 01:39:50;;;;;;;8.25;4.10;;;;;;;2.99;51.10;101709.53;5008978;28;20498;-72
2021/01/09 01:42:19;;;;;;;6.93;3.83;;;;;;;3.01;51.13;101713.06;4994389;28;20047;-73
2021/01/09 01:44:46;;;;;;;7.47;4.03;;;;;;;3.00;51.00;101712.16;4994553;28;20449;-73
2021/01/09 01:47:17;;;;;;;6.53;3.70;;;;;;;3.02;51.11;101721.09;4992770;28;20089;-74
2021/01/09 01:49:46;;;;;;;7.85;4.10;;;;;;;3.01;51.28;101723.88;5000466;28;20046;-73
2021/01/09 01:52:14;;;;;;;5.60;3.60;;;;;;;3.02;50.94;101722.94;4992527;28;20049;-74
2021/01/09 01:54:42;;;;;;;7.13;3.88;;;;;;;3.02;50.95;101731.03;4994575;28;20058;-73
2021/01/09 01:57:11;;;;;;;6.97;3.72;;;;;;;3.02;51.24;101729.22;4992931;28;20034;-74
2021/01/09 01:59:40;;;;;;;7.22;4.03;;;;;;;3.04;51.08;101737.28;4991881;28;20405;-74
2021/01/09 02:02:09;;;;;;;9.25;4.35;;;;;;;3.03;51.00;101739.09;4992873;28;20061;-74
2021/01/09 02:04:37;;;;;;;9.27;4.82;;;;;;;3.03;51.24;101733.69;4994240;28;20046;-72
2021/01/09 02:07:09;;;;;;;6.70;3.75;;;;;;;3.05;51.01;101737.19;4991693;28;20042;-71
2021/01/09 02:09:40;;;;;;;6.03;3.72;;;;;;;3.05;51.08;101739.88;4983923;28;20042;-71
2021/01/09 02:12:13;;;;;;;5.88;3.75;;;;;;;3.06;51.37;101738.06;4991275;28;20049;-73
2021/01/09 02:14:44;;;;;;;7.28;4.03;;;;;;;3.05;51.18;101745.28;5009016;28;20070;-73
2021/01/09 02:17:12;;;;;;;6.03;3.58;;;;;;;3.04;51.03;101740.81;4993576;28;20046;-73
2021/01/09 02:19:41;;;;;;;7.95;4.55;;;;;;;3.06;51.24;101748.88;4992682;28;20034;-74
2021/01/09 02:22:12;;;;;;;6.88;4.05;;;;;;;3.08;51.11;101752.41;4990981;28;22131;-72
2021/01/09 02:24:41;;;;;;;7.13;3.60;;;;;;;3.08;51.14;101757.81;4992688;28;20044;-74
2021/01/09 02:27:10;;;;;;;6.47;3.75;;;;;;;3.07;51.19;101759.63;4992320;28;20034;-73
2021/01/09 02:29:45;;;;;;;7.43;4.50;;;;;;;3.09;51.24;101755.03;4991102;28;20035;-71
2021/01/09 02:32:17;;;;;;;7.28;4.10;;;;;;;3.06;51.12;101752.47;4994459;28;20121;-72
2021/01/09 02:34:48;;;;;;;7.07;3.80;;;;;;;3.08;51.04;101758.69;4992386;28;20042;-74
2021/01/09 02:37:16;;;;;;;6.68;3.97;;;;;;;3.07;51.27;101754.22;4991405;28;20401;-73
2021/01/09 02:39:45;;;;;;;7.47;4.50;;;;;;;3.07;51.30;101751.53;4993371;28;20062;-73
2021/01/09 02:42:13;;;;;;;7.68;4.20;;;;;;;3.08;50.89;101747.00;5000511;28;20049;-73
2021/01/09 02:44:40;;;;;;;8.63;4.95;;;;;;;3.07;51.15;101748.81;4991341;28;20050;-73
2021/01/09 02:47:07;;;;;;;7.72;4.15;;;;;;;3.09;51.34;101746.94;4993338;28;20506;-75
2021/01/09 02:49:34;;;;;;;7.85;4.47;;;;;;;3.08;51.39;101744.28;4990873;28;20045;-74
2021/01/09 02:52:02;;;;;;;7.65;4.25;;;;;;;3.08;51.34;101750.59;4992379;28;20149;-74
2021/01/09 02:54:30;;;;;;;8.07;4.40;;;;;;;3.10;51.17;101745.13;4991897;28;20054;-72
2021/01/09 02:56:58;;;;;;;8.05;4.40;;;;;;;3.10;51.05;101751.41;4993298;28;20052;-73
2021/01/09 02:59:25;;;;;;;7.03;4.40;;;;;;;3.10;51.31;101747.81;4990402;28;20044;-73
2021/01/09 03:01:52;;;;;;;7.60;4.57;;;;;;;3.10;51.04;101755.94;4992677;28;20076;-74
2021/01/09 03:04:20;;;;;;;7.57;4.47;;;;;;;3.10;51.22;101750.53;5007968;28;20050;-73
2021/01/09 03:06:47;;;;;;;8.15;4.55;;;;;;;3.10;51.52;101748.69;4993477;28;20042;-73
2021/01/09 03:09:14;;;;;;;8.02;4.55;;;;;;;3.11;51.47;101749.59;4984438;28;20046;-73
2021/01/09 03:11:41;;;;;;;7.53;4.50;;;;;;;3.12;51.30;101748.66;4988683;28;20038;-73
2021/01/09 03:14:09;;;;;;;9.70;5.22;;;;;;;3.13;51.21;101745.84;4991234;28;20483;-73
2021/01/09 03:16:37;;;;;;;9.25;4.85;;;;;;;3.12;51.01;101740.53;4990633;28;20061;-73
2021/01/09 03:19:04;;;;;;;9.05;5.03;;;;;;;3.12;51.19;101738.72;4988298;28;20031;-73
2021/01/09 03:21:32;;;;;;;8.05;4.55;;;;;;;3.13;51.10;101744.97;4992408;28;20413;-73
2021/01/09 03:23:59;;;;;;;7.88;4.65;;;;;;;3.13;51.23;101744.97;5008190;28;20042;-72
2021/01/09 03:26:26;;;;;;;9.48;4.95;;;;;;;3.13;51.18;101747.66;4992337;28;20047;-73
2021/01/09 03:28:54;;;;;;;9.50;5.25;;;;;;;3.13;51.09;101748.56;4988836;28;20053;-73
2021/01/09 03:31:22;;;;;;;9.55;4.60;;;;;;;3.13;51.19;101747.66;4992916;28;20759;-73
2021/01/09 03:33:50;;;;;;;9.57;5.07;;;;;;;3.12;51.31;101752.22;4990889;28;20049;-73
2021/01/09 03:36:17;;;;;;;10.02;5.07;;;;;;;3.12;51.41;101751.34;4991898;28;20169;-73
2021/01/09 03:38:45;;;;;;;11.07;5.38;;;;;;;3.13;51.46;101753.06;4986757;28;20042;-73
2021/01/09 03:41:14;;;;;;;11.77;6.28;;;;;;;3.13;51.23;101743.16;4992667;28;20064;-73
2021/01/09 03:43:42;;;;;;;9.85;6.00;;;;;;;3.11;50.98;101741.47;4991534;28;20070;-73
2021/01/09 03:46:09;;;;;;;9.88;5.68;;;;;;;3.12;51.11;101751.34;4987874;28;20065;-73
2021/01/09 03:48:37;;;;;;;9.77;5.93;;;;;;;3.12;51.29;101754.94;4986894;28;20050;-73
2021/01/09 03:51:04;;;;;;;10.52;5.32;;;;;;;3.11;50.97;101750.47;4982069;28;20049;-74
2021/01/09 03:53:32;;;;;;;10.25;5.30;;;;;;;3.11;51.00;101747.75;4992006;28;20042;-73
2021/01/09 03:56:00;;;;;;;10.27;5.55;;;;;;;3.11;51.48;101747.75;5006657;28;20074;-73
2021/01/09 03:58:27;;;;;;;10.38;5.38;;;;;;;3.11;51.23;101749.59;4992476;28;20038;-73
2021/01/09 04:00:54;;;;;;;12.00;5.78;;;;;;;3.11;51.19;101750.47;4991316;28;20512;-73
2021/01/09 04:03:22;;;;;;;11.57;5.65;;;;;;;3.11;51.29;101752.28;4988121;28;20038;-73
2021/01/09 04:05:50;;;;;;;13.60;6.70;;;;;;;3.12;51.30;101762.16;4991012;28;20053;-73
2021/01/09 04:08:18;;;;;;;15.48;6.60;;;;;;;3.10;51.29;101756.81;4989115;28;20057;-73
2021/01/09 04:10:46;;;;;;;15.00;6.28;;;;;;;3.10;51.35;101767.63;4985068;28;20478;-73
2021/01/09 04:13:14;;;;;;;17.98;7.43;;;;;;;3.10;51.29;101774.84;4991935;28;20108;-73
2021/01/09 04:15:42;;;;;;;13.25;6.63;;;;;;;3.08;51.22;101772.22;4990733;28;20109;-73
2021/01/09 04:18:10;;;;;;;14.02;7.45;;;;;;;3.07;51.11;101767.75;4991069;28;20034;-73
2021/01/09 04:20:37;;;;;;;14.05;7.22;;;;;;;3.06;50.98;101773.19;4990560;28;20093;-73
2021/01/09 04:23:05;;;;;;;14.13;7.45;;;;;;;3.03;50.93;101773.34;4988850;28;20117;-73
2021/01/09 04:25:34;;;;;;;15.15;7.50;;;;;;;3.01;51.19;101775.22;4991088;28;20379;-73
2021/01/09 04:28:01;;;;;;;15.90;7.25;;;;;;;2.99;51.14;101777.97;4985063;28;20105;-73
2021/01/09 04:30:29;;;;;;;14.05;6.78;;;;;;;2.98;51.21;101778.03;4991359;28;20031;-73
2021/01/09 04:32:57;;;;;;;14.55;6.70;;;;;;;2.97;51.33;101778.97;4986603;28;20049;-73
2021/01/09 04:35:24;;;;;;;15.18;7.03;;;;;;;2.96;51.31;101769.97;4991390;28;20053;-73
2021/01/09 04:37:51;;;;;;;11.77;5.55;;;;;;;2.97;51.34;101777.16;4987823;28;20054;-73
2021/01/09 04:40:22;;;;;;;13.63;6.68;;;;;;;2.99;51.35;101772.56;4984467;28;20513;-73
2021/01/09 04:42:49;;;;;;;14.80;6.95;;;;;;;2.99;51.48;101774.41;4983147;28;20038;-73
2021/01/09 04:45:17;;;;;;;15.70;7.43;;;;;;;2.98;51.46;101773.50;5004953;28;20047;-73
2021/01/09 04:47:47;;;;;;;14.15;6.68;;;;;;;3.00;51.58;101774.34;4992634;28;20049;-73
2021/01/09 04:50:16;;;;;;;13.82;6.55;;;;;;;3.02;51.43;101771.59;4990498;28;20449;-73
2021/01/09 04:52:43;;;;;;;15.52;6.53;;;;;;;3.02;51.58;101779.69;4977530;28;20121;-73
2021/01/09 04:55:11;;;;;;;16.38;7.63;;;;;;;3.04;51.33;101781.38;4989944;28;20113;-73
2021/01/09 04:57:39;;;;;;;14.85;7.20;;;;;;;3.05;51.63;101777.72;4989319;28;20074;-73
2021/01/09 05:00:08;;;;;;;16.77;7.40;;;;;;;3.06;51.55;101781.31;4986093;28;20104;-73
2021/01/09 05:02:37;;;;;;;15.40;6.88;;;;;;;3.07;51.72;101792.06;4983785;28;20035;-73
2021/01/09 05:05:07;;;;;;;13.40;6.95;;;;;;;3.08;51.61;101791.13;4988441;28;20050;-73
2021/01/09 05:07:34;;;;;;;16.35;7.38;;;;;;;3.08;51.53;101796.53;4990067;28;20050;-73
2021/01/09 05:10:03;;;;;;;20.98;9.45;;;;;;;3.09;51.27;101792.88;4990137;28;20042;-73
2021/01/09 05:12:35;;;;;;;23.52;10.63;;;;;;;3.09;51.33;101801.00;4984943;28;20047;-73
2021/01/09 05:15:05;;;;;;;22.02;10.73;;;;;;;3.05;51.25;101791.25;4990126;28;20406;-72
2021/01/09 05:17:33;;;;;;;21.58;9.82;;;;;;;3.02;51.15;101790.50;4990259;28;20108;-73
2021/01/09 05:20:00;;;;;;;19.70;9.15;;;;;;;3.02;51.05;101790.50;4989769;28;20038;-73
2021/01/09 05:22:29;;;;;;;20.30;10.07;;;;;;;2.99;51.05;101794.19;4983602;28;20490;-73
2021/01/09 05:24:57;;;;;;;23.17;9.50;;;;;;;2.98;51.26;101797.84;4989895;28;20038;-73
2021/01/09 05:27:26;;;;;;;23.27;9.98;;;;;;;2.98;51.27;101810.47;4990740;28;20370;-73
2021/01/09 05:29:54;;;;;;;20.73;9.90;;;;;;;2.97;51.33;101814.09;4990003;28;20074;-74
2021/01/09 05:32:23;;;;;;;22.67;10.68;;;;;;;2.95;51.22;101814.19;4986585;28;20043;-74
2021/01/09 05:34:52;;;;;;;23.58;11.40;;;;;;;2.92;51.53;101817.88;4991510;28;20493;-73
2021/01/09 05:37:22;;;;;;;21.90;9.48;;;;;;;2.91;51.15;101816.13;4985739;28;20041;-73
2021/01/09 05:39:54;;;;;;;20.55;9.48;;;;;;;2.91;51.50;101820.66;4988310;28;20043;-73
2021/01/09 05:42:25;;;;;;;19.80;8.60;;;;;;;2.89;51.42;101822.53;4990762;28;20053;-74
2021/01/09 05:44:54;;;;;;;20.35;9.52;;;;;;;2.88;51.61;101821.63;4986549;28;20358;-73
2021/01/09 05:47:23;;;;;;;18.70;8.40;;;;;;;2.88;51.29;101826.16;4990098;28;20497;-73
2021/01/09 05:49:51;;;;;;;20.83;9.05;;;;;;;2.86;51.25;101830.75;4989532;28;20042;-74
2021/01/09 05:52:19;;;;;;;21.02;9.35;;;;;;;2.83;51.37;101829.06;4991069;28;20046;-74
2021/01/09 05:54:46;;;;;;;18.88;8.73;;;;;;;2.83;51.26;101825.47;4985881;28;20126;-74
2021/01/09 05:57:17;;;;;;;18.95;8.95;;;;;;;2.83;51.33;101830.88;4972321;28;20050;-74
2021/01/09 05:59:45;;;;;;;19.48;8.18;;;;;;;2.81;51.36;101835.44;4986819;28;20524;-74
2021/01/09 06:02:13;;;;;;;17.98;8.18;;;;;;;2.78;51.14;101839.16;4987976;28;20046;-74
2021/01/09 06:04:44;;;;;;;20.70;9.73;;;;;;;2.78;51.40;101835.59;4991031;28;20037;-74
2021/01/09 06:07:19;;;;;;;18.02;8.18;;;;;;;2.75;51.30;101833.88;4982083;28;20042;-74
2021/01/09 06:09:53;;;;;;;18.55;8.45;;;;;;;2.71;51.49;101840.31;4991816;28;20100;-74
2021/01/09 06:12:22;;;;;;;18.77;7.95;;;;;;;2.69;51.21;101839.53;4992163;28;20501;-74
2021/01/09 06:14:51;;;;;;;18.40;8.60;;;;;;;2.67;51.32;101843.22;4992673;28;20445;-73
2021/01/09 06:17:20;;;;;;;18.58;8.23;;;;;;;2.65;51.37;101842.38;4993153;28;20060;-74
2021/01/09 06:19:49;;;;;;;17.08;7.93;;;;;;;2.63;51.35;101844.28;4990865;28;20489;-74
2021/01/09 06:22:17;;;;;;;16.88;8.20;;;;;;;2.61;51.25;101846.16;4996283;28;20034;-74
2021/01/09 06:24:44;;;;;;;19.02;8.65;;;;;;;2.56;51.32;101844.47;4993893;28;20050;-74
2021/01/09 06:27:24;;;;;;;16.60;8.32;;;;;;;2.59;51.57;101851.59;4987628;28;20041;-74
2021/01/09 06:29:55;;;;;;;20.42;8.00;;;;;;;2.55;51.16;101853.53;4990579;28;20085;-74
2021/01/09 06:32:29;;;;;;;19.90;7.95;;;;;;;2.56;51.65;101854.41;4992478;28;20041;-74
2021/01/09 06:35:02;;;;;;;14.70;6.93;;;;;;;2.53;51.29;101849.13;4990845;28;20034;-74
2021/01/09 06:37:29;;;;;;;;;;;;;;;2.30;52.09;101849.09;4988516;28;20038;-73
2021/01/09 06:39:58;;;;;;;14.48;5.22;;;;;;;2.48;51.78;101848.41;4990398;28;20020;-74
2021/01/09 06:42:26;;;;;;;14.23;6.05;;;;;;;2.52;51.75;101850.06;4992667;28;20101;-74
2021/01/09 06:44:54;;;;;;;16.17;6.82;;;;;;;2.53;51.86;101849.13;4992221;28;20050;-74
2021/01/09 06:47:26;;;;;;;16.27;6.20;;;;;;;2.55;51.78;101856.22;4987581;28;20093;-73
2021/01/09 06:49:53;;;;;;;16.95;6.45;;;;;;;2.55;51.94;101848.13;4988538;28;20043;-74
2021/01/09 06:53:04;;;;;;;11.80;5.40;;;;;;;2.56;51.87;101859.81;4993650;28;20482;-74
2021/01/09 06:55:54;;;;;;;14.52;6.60;;;;;;;2.57;52.00;101869.69;4988289;28;20466;-73
2021/01/09 06:58:27;;;;;;;15.25;6.95;;;;;;;2.62;52.04;101874.94;4992187;28;20485;-74
2021/01/09 07:01:18;;;;;;;16.77;6.95;;;;;;;2.64;52.11;101873.03;4992354;28;20038;-74
2021/01/09 07:03:46;;;;;;;16.83;6.82;;;;;;;2.63;51.82;101866.75;4993267;28;20108;-74
2021/01/09 07:06:13;;;;;;;19.50;7.95;;;;;;;2.67;52.06;101870.22;4990345;28;20046;-74
2021/01/09 07:08:43;;;;;;;16.45;7.20;;;;;;;2.70;52.07;101876.41;4991947;28;20038;-74
2021/01/09 07:11:12;;;;;;;21.33;8.88;;;;;;;2.73;51.94;101875.38;4985287;28;20390;-73
2021/01/09 07:13:40;;;;;;;19.38;8.35;;;;;;;2.75;52.22;101878.91;4992297;28;20038;-73
2021/01/09 07:16:10;;;;;;;18.55;8.45;;;;;;;2.79;52.03;101880.59;5004673;28;20479;-73
2021/01/09 07:18:40;;;;;;;21.63;8.75;;;;;;;2.80;51.74;101875.09;4990986;28;20045;-73
2021/01/09 07:21:08;;;;;;;16.63;7.93;;;;;;;2.83;52.09;101877.69;4987438;28;20122;-73
2021/01/09 07:23:38;;;;;;;16.25;7.53;;;;;;;2.84;51.93;101873.19;4992296;28;20054;-73
2021/01/09 07:26:08;;;;;;;19.95;7.78;;;;;;;2.86;51.70;101882.13;5001076;28;20045;-74
2021/01/09 07:28:37;;;;;;;20.88;8.15;;;;;;;2.87;51.65;101886.56;4991171;28;20042;-73
2021/01/09 07:31:10;;;;;;;19.67;7.97;;;;;;;2.88;51.93;101883.78;4992377;28;20038;-74
2021/01/09 07:33:38;;;;;;;20.77;8.35;;;;;;;2.90;51.89;101890.03;4985827;28;20039;-73
2021/01/09 07:36:06;;;;;;;20.17;8.07;;;;;;;2.91;51.69;101883.69;4991252;28;20061;-73
2021/01/09 07:39:03;;;;;;;18.38;7.10;;;;;;;2.92;52.04;101889.97;4989952;28;20034;-73
2021/01/09 07:41:33;;;;;;;17.95;6.97;;;;;;;2.93;51.98;101897.16;4986478;28;20064;-73
2021/01/09 07:44:14;;;;;;;19.67;8.00;;;;;;;2.97;51.98;101904.19;4994056;28;20133;-73
2021/01/09 07:46:51;;;;;;;16.80;7.22;;;;;;;2.98;52.12;101902.38;4999373;28;20414;-74
2021/01/09 07:49:27;;;;;;;20.45;7.90;;;;;;;3.00;51.79;101905.91;4990293;28;20474;-74
2021/01/09 07:51:55;;;;;;;21.65;8.57;;;;;;;2.99;51.90;101910.41;4988366;28;20462;-74
2021/01/09 07:54:36;;;;;;;22.95;8.50;;;;;;;3.02;51.95;101904.91;4992888;28;20057;-74
2021/01/09 07:57:05;;;;;;;21.35;9.25;;;;;;;3.02;51.62;101909.44;4992344;28;20500;-74
2021/01/09 07:59:33;;;;;;;18.17;8.38;;;;;;;3.01;51.72;101908.56;4991035;28;20049;-74
2021/01/09 08:02:00;;;;;;;25.40;9.25;;;;;;;3.04;51.74;101918.38;4992505;28;20050;-74
2021/01/09 08:04:28;;;;;;;20.05;8.55;;;;;;;3.04;51.80;101918.38;4987531;28;20545;-74
2021/01/09 08:06:56;;;;;;;20.70;7.72;;;;;;;3.05;51.77;101917.41;4988607;28;20048;-74
2021/01/09 08:09:28;;;;;;;22.88;8.35;;;;;;;3.08;51.87;101918.19;4989760;28;20501;-74
2021/01/09 08:12:01;;;;;;;20.95;8.30;;;;;;;3.06;51.58;101919.16;4991808;28;20046;-74
2021/01/09 08:14:29;;;;;;;21.63;8.77;;;;;;;3.07;51.65;101924.53;4992598;28;20050;-74
2021/01/09 08:17:09;;;;;;;19.67;8.75;;;;;;;3.10;51.57;101924.41;4987048;28;20043;-74
2021/01/09 08:19:37;;;;;;;21.92;8.15;;;;;;;3.09;51.57;101930.75;4986642;28;20114;-74
2021/01/09 08:22:05;;;;;;;21.50;8.75;;;;;;;3.09;51.94;101928.06;4990150;28;20553;-73
2021/01/09 08:24:32;;;;;;;22.92;8.52;;;;;;;3.11;51.62;101925.31;4992588;28;20568;-74
2021/01/09 08:27:01;;;;;;;24.67;8.82;;;;;;;3.12;51.88;101929.78;4991907;28;20042;-74
2021/01/09 08:29:29;;;;;;;21.23;8.63;;;;;;;3.12;51.98;101936.06;4989498;28;20129;-74
2021/01/09 08:31:57;;;;;;;22.05;9.82;;;;;;;3.12;51.86;101946.00;4984630;28;20061;-74
2021/01/09 08:34:25;;;;;;;22.60;8.52;;;;;;;3.13;51.76;101935.09;4988191;28;20366;-74
2021/01/09 08:36:55;;;;;;;24.30;9.57;;;;;;;3.14;51.62;101938.69;4995768;28;20510;-74
2021/01/09 08:39:23;;;;;;;18.73;9.07;;;;;;;3.13;51.65;101947.72;4990185;28;20045;-74
2021/01/09 08:41:51;;;;;;;22.75;9.18;;;;;;;3.11;51.72;101941.53;4990338;28;20506;-74
2021/01/09 08:44:18;;;;;;;17.45;7.38;;;;;;;3.10;51.40;101951.44;4988775;28;20050;-74
2021/01/09 08:46:47;;;;;;;22.27;9.40;;;;;;;3.11;51.71;101955.94;4991029;28;20053;-74
2021/01/09 08:49:26;;;;;;;21.20;8.18;;;;;;;3.13;51.69;101958.53;4985970;28;20038;-74
2021/01/09 08:51:59;;;;;;;19.08;8.05;;;;;;;3.10;51.77;101958.69;4982448;28;20128;-74
2021/01/09 08:54:28;;;;;;;21.80;9.73;;;;;;;3.08;51.39;101957.84;4988526;28;20530;-73
2021/01/09 08:56:56;;;;;;;17.98;7.50;;;;;;;3.09;51.27;101960.50;4992659;28;20478;-74
2021/01/09 08:59:24;;;;;;;18.40;8.45;;;;;;;3.09;51.72;101960.50;4990876;28;20121;-74
2021/01/09 09:01:58;;;;;;;19.27;7.85;;;;;;;3.12;52.07;101970.31;4987683;28;20101;-74
2021/01/09 09:04:26;;;;;;;23.58;8.98;;;;;;;3.10;51.88;101970.38;4990064;28;20117;-74
2021/01/09 09:06:58;;;;;;;28.05;10.25;;;;;;;3.12;51.91;101976.63;4985292;28;20042;-74
2021/01/09 09:09:28;;;;;;;19.02;7.35;;;;;;;3.12;51.91;101979.31;4984102;28;20046;-73
2021/01/09 09:11:56;;;;;;;20.98;8.55;;;;;;;3.13;51.76;101982.88;5004783;28;20039;-74
2021/01/09 09:14:25;;;;;;;22.80;8.07;;;;;;;3.14;52.07;101981.94;5005315;28;20039;-74
2021/01/09 09:17:00;;;;;;;17.23;7.28;;;;;;;3.19;51.93;101980.84;4990402;28;20042;-73
2021/01/09 09:19:35;;;;;;;19.30;7.97;;;;;;;3.19;51.90;101983.56;4988503;28;20065;-73
2021/01/09 09:22:03;;;;;;;21.38;8.60;;;;;;;3.19;51.84;101982.66;4990283;28;20079;-73
2021/01/09 09:24:40;;;;;;;24.35;8.13;;;;;;;3.23;51.94;101990.59;4988391;28;20047;-73
2021/01/09 09:27:21;;;;;;;19.70;8.43;;;;;;;3.23;51.99;101996.00;4986374;28;20070;-73
2021/01/09 09:30:07;;;;;;;22.90;8.73;;;;;;;3.23;51.82;102006.81;4987647;28;20050;-72
2021/01/09 09:32:36;;;;;;;25.20;8.85;;;;;;;3.22;51.98;102005.03;4984038;28;20386;-73
2021/01/09 09:35:20;;;;;;;22.42;8.63;;;;;;;3.26;51.81;102013.94;4983276;28;20054;-72
2021/01/09 09:37:47;;;;;;;22.40;8.77;;;;;;;3.24;52.07;102011.28;4986544;28;20042;-72
2021/01/09 09:40:22;;;;;;;23.80;11.27;;;;;;;3.28;51.82;102010.25;4991483;28;20120;-72
2021/01/09 09:42:50;;;;;;;28.70;9.80;;;;;;;3.28;51.88;102009.38;4990558;28;20048;-73
2021/01/09 09:45:17;;;;;;;29.33;11.45;;;;;;;3.28;51.76;102015.66;4995580;28;20375;-72
2021/01/09 09:47:52;;;;;;;24.50;10.75;;;;;;;3.30;51.63;102011.06;4997307;28;20066;-73
2021/01/09 09:50:20;;;;;;;27.08;9.48;;;;;;;3.29;51.98;102017.41;4996270;28;20048;-72
2021/01/09 09:52:57;;;;;;;27.10;10.60;;;;;;;3.33;51.98;102020.88;4994980;28;20038;-73
2021/01/09 09:55:25;;;;;;;26.23;11.43;;;;;;;3.31;51.50;102011.94;4994793;28;20070;-72
2021/01/09 09:58:05;;;;;;;26.92;10.95;;;;;;;3.35;51.74;102010.00;4995258;28;20026;-73
2021/01/09 10:00:39;;;;;;;25.13;9.93;;;;;;;3.32;51.55;102013.69;4992885;28;20125;-72
2021/01/09 10:03:08;;;;;;;26.02;10.60;;;;;;;3.32;51.70;102008.28;4989867;28;20405;-73
2021/01/09 10:05:35;;;;;;;29.98;11.52;;;;;;;3.32;51.83;102001.06;5004449;28;20046;-73
2021/01/09 10:08:10;;;;;;;32.03;11.73;;;;;;;3.36;51.91;102003.66;4994378;28;20039;-73
2021/01/09 10:10:40;;;;;;;24.48;10.15;;;;;;;3.32;51.70;102009.19;4988439;28;20118;-73
2021/01/09 10:13:07;;;;;;;25.83;10.73;;;;;;;3.33;51.77;102018.19;4990913;28;20974;-73
2021/01/09 10:15:35;;;;;;;22.33;9.27;;;;;;;3.34;51.82;102011.81;4994353;28;20469;-73
2021/01/09 10:18:03;;;;;;;25.10;11.20;;;;;;;3.34;51.52;102009.13;5001992;28;20066;-73
2021/01/09 10:20:31;;;;;;;29.77;11.95;;;;;;;3.36;51.63;102014.47;4994620;28;20035;-73
2021/01/09 10:22:58;;;;;;;33.85;11.82;;;;;;;3.34;51.60;102017.25;4995689;28;20038;-72
2021/01/09 10:25:26;;;;;;;28.10;11.25;;;;;;;3.33;51.41;102021.75;5006044;28;20125;-73
2021/01/09 10:27:53;;;;;;;31.92;13.07;;;;;;;3.33;51.48;102010.94;4994126;28;20465;-73
2021/01/09 10:30:21;;;;;;;28.23;11.00;;;;;;;3.33;51.42;102015.47;4991319;28;20108;-72
2021/01/09 10:32:49;;;;;;;31.80;11.90;;;;;;;3.32;51.80;102014.59;4995505;28;20046;-72
2021/01/09 10:35:16;;;;;;;29.33;11.57;;;;;;;3.33;51.46;102021.75;4993489;28;20061;-72
2021/01/09 10:37:47;;;;;;;34.75;12.20;;;;;;;3.33;51.60;102016.34;4990804;28;20045;-72
2021/01/09 10:40:14;;;;;;;32.63;12.02;;;;;;;3.32;51.39;102016.41;4988151;28;20030;-72
2021/01/09 10:42:41;;;;;;;31.33;10.90;;;;;;;3.33;51.68;102018.19;4993976;28;20510;-73
2021/01/09 10:45:12;;;;;;;30.77;10.93;;;;;;;3.32;51.86;102016.41;4994274;28;20117;-72
2021/01/09 10:47:39;;;;;;;28.27;11.00;;;;;;;3.32;51.56;102021.81;4993351;28;20070;-72
2021/01/09 10:50:27;;;;;;;37.17;13.32;;;;;;;3.29;51.52;102012.00;4993136;28;20078;-72
2021/01/09 10:52:55;;;;;;;34.22;12.63;;;;;;;3.31;51.56;102014.63;4993634;28;20125;-73
2021/01/09 10:55:23;;;;;;;28.80;11.43;;;;;;;3.29;51.34;102014.69;4988110;28;20050;-72
2021/01/09 10:57:51;;;;;;;33.20;13.77;;;;;;;3.29;51.54;102009.28;4993877;28;20066;-72
2021/01/09 11:00:21;;;;;;;29.13;10.95;;;;;;;3.29;51.55;102005.69;4993625;28;20053;-72
2021/01/09 11:02:48;;;;;;;32.95;11.80;;;;;;;3.27;51.68;102013.00;4993370;28;20122;-73
2021/01/09 11:05:15;;;;;;;31.35;11.95;;;;;;;3.28;51.81;102015.66;4992281;28;20042;-72
2021/01/09 11:07:43;;;;;;;30.75;11.48;;;;;;;3.27;51.56;102013.88;4991331;28;20053;-73
2021/01/09 11:10:12;;;;;;;33.75;11.35;;;;;;;3.28;51.58;102014.78;4992430;28;20113;-72
2021/01/09 11:12:39;;;;;;;30.92;11.65;;;;;;;3.27;51.84;102013.00;4989241;28;20136;-72
2021/01/09 11:15:08;;;;;;;31.70;10.88;;;;;;;3.30;51.92;102010.16;4992444;28;20093;-72
2021/01/09 11:17:35;;;;;;;28.65;11.00;;;;;;;3.29;52.09;102011.09;4990128;28;20093;-71
2021/01/09 11:20:03;;;;;;;29.65;10.90;;;;;;;3.30;51.95;102008.34;4989966;28;20397;-71
2021/01/09 11:22:31;;;;;;;24.15;9.18;;;;;;;3.30;51.88;102008.34;4992541;28;20030;-71
2021/01/09 11:24:58;;;;;;;29.40;11.73;;;;;;;3.32;51.87;102005.59;4989791;28;20129;-71
2021/01/09 11:27:29;;;;;;;27.67;11.70;;;;;;;3.34;52.01;102003.72;4990564;28;20052;-72
2021/01/09 11:29:57;;;;;;;26.90;10.35;;;;;;;3.33;51.79;102002.84;4988470;28;20129;-71
2021/01/09 11:32:26;;;;;;;26.35;10.00;;;;;;;3.35;51.63;101999.19;5000522;28;20039;-74
2021/01/09 11:34:54;;;;;;;29.40;11.52;;;;;;;3.34;51.81;102003.72;4992034;28;20081;-72
2021/01/09 11:37:23;;;;;;;27.90;11.02;;;;;;;3.34;51.60;101995.59;5002188;28;20073;-72